Time;durP1;ratioP1;P1;durP2;ratioP2;P2;SDS_P1;SDS_P2;PMS_P1;PMS_P2;Temp;Humidity;BMP_temperature;BMP_pressure;BME280_temperature;BME280_humidity;BME280_pressure;Samples;Min_cycle;Max_cycle;Signal;HPM_P1;HPM_P2
2021/03/28 00:02:48;;;;;;;31.25;13.93;;;;;;;2.61;76.56;98027.81;5044904;28;20091;-67
2021/03/28 00:05:35;;;;;;;29.02;13.25;;;;;;;-0.61;77.23;97503.75;5045512;28;20124;-69
2021/03/28 00:08:26;;;;;;;29.48;14.48;;;;;;;2.80;76.71;98041.47;5045902;28;20124;-67
2021/03/28 00:11:20;;;;;;;32.00;14.48;;;;;;;2.71;76.45;98038.63;5044224;28;20047;-66
2021/03/28 00:14:04;;;;;;;;;;;;;;;2.62;76.38;98045.88;5044897;28;20114;-67
2021/03/28 00:16:50;;;;;;;32.83;14.52;;;;;;;2.58;76.75;98043.97;5043891;28;20008;-68
2021/03/28 00:19:37;;;;;;;31.15;14.13;;;;;;;2.59;76.73;98045.63;5044388;28;20126;-68
2021/03/28 00:22:40;;;;;;;28.33;15.00;;;;;;;2.57;76.73;98053.31;5045552;28;20067;-67
2021/03/28 00:25:49;;;;;;;35.55;16.42;;;;;;;2.54;77.50;98048.44;5045161;28;20102;-66
2021/03/28 00:28:36;;;;;;;21.08;12.18;;;;;;;2.49;77.63;98051.22;5046059;28;20036;-67
2021/03/28 00:31:31;;;;;;;25.38;13.15;;;;;;;2.32;77.62;98016.19;5045317;28;20047;-67
2021/03/28 00:34:18;;;;;;;25.45;14.32;;;;;;;2.39;79.52;98040.41;5044026;28;20123;-67
2021/03/28 00:37:09;;;;;;;31.10;14.77;;;;;;;2.45;78.99;98047.47;5047264;28;20055;-67
2021/03/28 00:39:59;;;;;;;27.45;12.95;;;;;;;2.17;78.89;98026.50;5065248;28;20059;-67
2021/03/28 00:42:48;;;;;;;28.33;14.02;;;;;;;2.21;80.43;98049.41;5064338;28;20047;-67
2021/03/28 00:45:41;;;;;;;21.98;11.68;;;;;;;2.12;81.46;98042.97;5064977;28;20097;-68
2021/03/28 00:48:31;;;;;;;17.52;9.05;;;;;;;2.17;81.40;98042.88;5064900;28;20063;-68
2021/03/28 00:51:21;;;;;;;25.20;12.27;;;;;;;2.03;79.88;98017.38;5065116;28;20089;-68
2021/03/28 00:54:18;;;;;;;22.77;11.52;;;;;;;2.27;78.95;98015.44;5065309;28;20157;-67
2021/03/28 00:57:04;;;;;;;22.05;11.18;;;;;;;2.27;79.33;98024.47;5077600;28;20102;-68
2021/03/28 01:00:10;;;;;;;22.83;11.02;;;;;;;2.32;79.31;98039.97;5064854;28;20035;-66
2021/03/28 01:03:06;;;;;;;17.63;9.07;;;;;;;2.32;79.15;98031.78;5064569;28;20059;-67
2021/03/28 01:05:55;;;;;;;21.88;9.88;;;;;;;1.52;80.60;97927.84;5063225;28;20101;-67
2021/03/28 01:08:52;;;;;;;16.95;8.80;;;;;;;2.01;81.77;98071.53;5063777;28;20105;-68
2021/03/28 01:12:14;;;;;;;17.85;9.68;;;;;;;1.98;82.52;98040.09;5064358;28;20047;-68
2021/03/28 01:15:21;;;;;;;17.20;9.13;;;;;;;2.09;81.96;98036.16;5063143;28;20585;-68
2021/03/28 01:18:15;;;;;;;19.67;10.07;;;;;;;2.08;82.34;98041.91;5063626;28;20173;-68
2021/03/28 01:21:08;;;;;;;;;;;;;;;2.15;82.05;98039.66;5063386;28;20078;-68
2021/03/28 01:24:13;;;;;;;19.27;9.85;;;;;;;2.12;82.56;98032.03;5065077;28;20371;-67
2021/03/28 01:27:35;;;;;;;23.85;10.95;;;;;;;2.11;81.07;98039.41;5064054;28;20058;-68
2021/03/28 01:30:35;;;;;;;26.30;12.00;;;;;;;2.11;80.14;98055.00;5062878;28;20126;-65
2021/03/28 01:33:28;;;;;;;30.50;13.32;;;;;;;2.11;80.29;98044.88;5064172;28;20505;-67
2021/03/28 01:36:22;;;;;;;25.02;14.20;;;;;;;2.17;79.81;98037.41;5062610;28;20035;-66
2021/03/28 01:39:16;;;;;;;28.08;13.70;;;;;;;2.10;81.10;98035.06;5045199;28;20056;-67
2021/03/28 01:42:04;;;;;;;30.85;13.57;;;;;;;2.02;80.64;98007.56;5042805;28;20103;-67
2021/03/28 01:44:53;;;;;;;38.35;16.35;;;;;;;2.10;82.11;98036.97;5043549;28;20031;-65
2021/03/28 01:47:48;;;;;;;42.88;17.55;;;;;;;2.03;80.35;98010.00;5042443;28;20048;-67
2021/03/28 01:50:39;;;;;;;26.60;13.95;;;;;;;2.17;79.57;98023.75;5042043;28;20151;-67
2021/03/28 01:54:04;;;;;;;27.95;14.77;;;;;;;2.17;79.01;98027.31;5044177;28;20589;-66
2021/03/28 01:57:07;;;;;;;29.67;15.05;;;;;;;2.07;79.05;98032.09;4981244;28;20099;-66
2021/03/28 02:00:08;;;;;;;35.45;17.48;;;;;;;2.12;79.89;98034.78;5043038;28;20095;-66
2021/03/28 02:02:56;;;;;;;27.70;14.55;;;;;;;2.09;79.39;98030.69;5043875;28;20111;-67
2021/03/28 02:05:45;;;;;;;41.97;19.15;;;;;;;2.04;80.08;98027.22;5043820;28;20040;-67
2021/03/28 02:08:53;;;;;;;54.83;23.23;;;;;;;1.64;81.52;97964.84;5043762;28;20047;-66
2021/03/28 02:11:51;;;;;;;44.45;18.23;;;;;;;1.62;80.57;97969.78;5043512;28;20476;-67
2021/03/28 02:14:38;;;;;;;40.72;16.23;;;;;;;1.89;81.96;98013.72;5043302;28;20429;-66
2021/03/28 02:17:33;;;;;;;33.08;14.90;;;;;;;1.38;82.91;97970.59;5042452;28;20074;-66
2021/03/28 02:20:26;;;;;;;36.25;15.43;;;;;;;1.80;83.13;98021.75;5042181;28;20047;-67
2021/03/28 02:23:21;;;;;;;98.22;39.33;;;;;;;1.81;83.70;98011.63;5042529;28;20044;-66
2021/03/28 02:26:23;;;;;;;48.60;20.05;;;;;;;1.49;84.40;98015.78;5043557;28;20106;-65
2021/03/28 02:29:23;;;;;;;47.00;18.75;;;;;;;1.47;83.78;98001.63;5043770;28;20094;-65
2021/03/28 02:32:41;;;;;;;52.25;24.10;;;;;;;1.75;83.26;98023.72;5041970;28;20055;-64
2021/03/28 02:35:59;;;;;;;41.13;18.88;;;;;;;1.64;84.33;98024.94;5043147;28;20052;-66
2021/03/28 02:39:05;;;;;;;40.67;19.88;;;;;;;1.72;84.16;98027.03;5059139;28;20575;-67
2021/03/28 02:42:03;;;;;;;38.30;17.85;;;;;;;1.17;84.36;97947.34;5063669;28;20098;-67
2021/03/28 02:45:06;;;;;;;28.55;15.15;;;;;;;1.64;84.39;98030.38;5062564;28;20487;-67
2021/03/28 02:48:17;;;;;;;36.47;16.40;;;;;;;1.71;84.22;98026.22;5062264;28;20162;-66
2021/03/28 02:51:19;;;;;;;29.55;13.43;;;;;;;1.74;83.03;98033.03;5061871;28;20039;-67
2021/03/28 02:54:26;;;;;;;25.63;13.50;;;;;;;1.21;82.23;97970.22;5062032;28;20093;-67
2021/03/28 02:57:15;;;;;;;27.52;13.48;;;;;;;1.15;83.70;97932.38;5075987;28;20541;-66
2021/03/28 03:00:23;;;;;;;34.65;17.23;;;;;;;1.81;83.50;98028.84;5062251;28;20698;-67
2021/03/28 03:03:36;;;;;;;27.05;13.77;;;;;;;1.74;84.63;98038.50;5063906;28;20043;-66
2021/03/28 03:06:42;;;;;;;29.20;11.95;;;;;;;1.68;83.50;98028.69;5061691;28;20040;-66
2021/03/28 03:09:54;;;;;;;23.10;12.63;;;;;;;1.73;83.00;98037.66;5063384;28;20164;-67
2021/03/28 03:13:09;;;;;;;24.80;12.70;;;;;;;1.76;82.54;98034.34;5066845;28;20055;-67
2021/03/28 03:16:13;;;;;;;21.33;11.25;;;;;;;1.68;83.86;98023.22;5064699;28;20038;-67
2021/03/28 03:19:35;;;;;;;23.63;12.93;;;;;;;1.72;84.34;98035.22;5066637;28;20043;-67
2021/03/28 03:22:28;;;;;;;24.17;13.43;;;;;;;1.67;85.29;98035.28;5066762;28;20493;-66
2021/03/28 03:25:34;;;;;;;25.27;12.23;;;;;;;1.69;85.76;98033.06;5066687;28;20982;-66
2021/03/28 03:28:32;;;;;;;22.35;10.95;;;;;;;1.44;83.60;98056.78;5065516;28;20087;-66
2021/03/28 03:31:38;;;;;;;23.45;11.85;;;;;;;1.36;83.79;98056.56;5064791;28;20570;-65
2021/03/28 03:34:25;;;;;;;22.92;11.00;;;;;;;1.38;83.34;98052.47;5066427;28;20573;-67
2021/03/28 03:37:28;;;;;;;24.92;12.15;;;;;;;1.44;83.68;98050.50;5062383;28;20048;-66
2021/03/28 03:40:37;;;;;;;21.77;11.60;;;;;;;0.91;84.14;97981.41;5046159;28;20133;-65
2021/03/28 03:43:46;;;;;;;20.85;10.45;;;;;;;1.39;84.88;98054.09;5046577;28;20804;-66
2021/03/28 03:47:12;;;;;;;25.00;11.63;;;;;;;0.56;85.54;97918.16;5044791;28;20039;-64
2021/03/28 03:50:29;;;;;;;33.90;16.33;;;;;;;1.53;85.62;98065.97;5045735;28;20115;-66
2021/03/28 03:53:15;;;;;;;35.60;18.17;;;;;;;1.46;85.00;98053.78;5046048;28;20052;-66
2021/03/28 03:56:00;;;;;;;41.58;21.52;;;;;;;1.48;85.59;98067.94;5046098;28;20395;-66
2021/03/28 03:59:14;;;;;;;33.78;15.68;;;;;;;1.49;84.95;98058.66;5046982;28;20557;-66
2021/03/28 04:02:07;;;;;;;39.33;19.35;;;;;;;1.52;85.00;98058.91;5045612;28;20060;-66
2021/03/28 04:05:13;;;;;;;60.03;25.20;;;;;;;1.52;83.48;98063.53;5045996;28;20044;-65
2021/03/28 04:08:31;;;;;;;79.95;35.40;;;;;;;1.47;85.17;98061.66;5046008;28;20149;-65
2021/03/28 04:11:53;;;;;;;101.65;43.88;;;;;;;1.53;84.14;98063.25;5045750;28;20113;-66
2021/03/28 04:14:50;;;;;;;92.38;37.47;;;;;;;1.49;85.35;98067.66;5044605;28;20167;-64
2021/03/28 04:18:13;;;;;;;126.05;53.70;;;;;;;1.63;83.92;98065.06;5045572;28;20803;-65
2021/03/28 04:21:29;;;;;;;110.40;44.15;;;;;;;1.56;83.89;98070.84;5043454;28;20507;-65
2021/03/28 04:24:24;;;;;;;76.53;30.30;;;;;;;1.61;83.87;98063.72;5045970;28;20072;-67
2021/03/28 04:27:29;;;;;;;65.07;27.85;;;;;;;0.34;85.20;97898.72;5045114;28;20210;-67
2021/03/28 04:31:03;;;;;;;44.20;19.83;;;;;;;1.69;84.21;98063.13;5044901;28;20408;-66
2021/03/28 04:34:14;;;;;;;;;;;;;;;1.80;84.41;98070.09;5040684;28;20064;-65
2021/03/28 04:37:22;;;;;;;38.40;17.65;;;;;;;1.66;84.83;98063.69;5044337;28;20469;-66
2021/03/28 04:40:18;;;;;;;46.58;22.27;;;;;;;1.72;85.72;98068.00;5065126;28;20035;-67
2021/03/28 04:44:00;;;;;;;64.07;32.08;;;;;;;1.84;83.13;98073.88;5065635;28;20118;-66
2021/03/28 04:47:21;;;;;;;53.78;26.25;;;;;;;1.92;84.36;98073.25;5002111;28;20037;-66
2021/03/28 04:50:42;;;;;;;59.75;28.35;;;;;;;2.08;82.60;98074.69;5001817;28;20071;-66
2021/03/28 04:53:41;;;;;;;78.55;35.55;;;;;;;2.05;81.28;98072.56;5064919;28;20157;-66
2021/03/28 04:56:37;;;;;;;78.15;38.00;;;;;;;2.33;80.82;98079.88;5062682;28;20450;-65
2021/03/28 04:59:34;;;;;;;64.13;33.83;;;;;;;2.47;80.90;98072.56;5064899;28;20167;-65
2021/03/28 05:02:27;;;;;;;79.90;38.55;;;;;;;2.73;79.23;98084.81;5064534;28;20688;-66
2021/03/28 05:05:53;;;;;;;77.30;35.65;;;;;;;2.90;78.76;98091.41;5064136;28;20098;-67
2021/03/28 05:09:21;;;;;;;96.35;47.47;;;;;;;3.12;79.15;98077.13;5064625;28;20109;-66
2021/03/28 05:12:47;;;;;;;55.80;30.38;;;;;;;3.36;77.64;98088.78;5001681;28;20076;-67
2021/03/28 05:16:02;;;;;;;65.13;32.67;;;;;;;3.52;76.42;98076.47;4945127;28;20046;-67
2021/03/28 05:19:17;;;;;;;59.25;29.42;;;;;;;3.74;78.27;98082.13;5021617;28;20164;-65
2021/03/28 05:22:20;;;;;;;63.78;32.95;;;;;;;3.94;77.00;98083.66;5064201;28;20422;-66
2021/03/28 05:25:20;;;;;;;34.97;19.67;;;;;;;4.10;75.19;98077.59;5064341;28;20414;-66
2021/03/28 05:28:43;;;;;;;38.58;18.88;;;;;;;4.36;75.21;98097.13;5064308;28;20521;-67
2021/03/28 05:31:43;;;;;;;32.25;17.23;;;;;;;4.49;73.67;98088.88;5062749;28;20504;-66
2021/03/28 05:34:48;;;;;;;33.15;17.13;;;;;;;4.73;73.66;98085.13;5063659;28;20047;-66
2021/03/28 05:38:02;;;;;;;27.08;15.00;;;;;;;4.94;73.37;98091.75;5058889;28;20106;-67
2021/03/28 05:40:58;;;;;;;22.80;13.32;;;;;;;5.08;71.44;98065.09;5038483;28;20151;-66
2021/03/28 05:44:04;;;;;;;29.83;16.33;;;;;;;5.41;70.44;98085.72;5043052;28;20135;-67
2021/03/28 05:47:24;;;;;;;25.83;15.38;;;;;;;5.59;69.16;98088.28;5042277;28;20733;-67
2021/03/28 05:50:30;;;;;;;28.65;14.75;;;;;;;5.89;68.85;98075.72;5041807;28;20106;-65
2021/03/28 05:53:48;;;;;;;33.60;17.20;;;;;;;6.01;67.75;98078.69;5043287;28;20393;-66
2021/03/28 05:56:46;;;;;;;30.55;16.58;;;;;;;6.04;67.22;98045.06;5042361;28;20035;-65
2021/03/28 05:59:50;;;;;;;27.35;14.65;;;;;;;6.59;68.11;98078.47;5043215;28;20055;-66
2021/03/28 06:02:55;;;;;;;24.50;13.35;;;;;;;7.00;66.03;98084.41;5043980;28;20522;-66
2021/03/28 06:05:49;;;;;;;24.13;13.98;;;;;;;7.23;65.14;98083.13;5042494;28;20133;-67
2021/03/28 06:09:11;;;;;;;30.83;18.52;;;;;;;7.55;64.33;98075.19;5042879;28;20522;-66
2021/03/28 06:12:04;;;;;;;37.72;21.65;;;;;;;7.89;62.61;98079.03;5043402;28;20052;-66
2021/03/28 06:15:09;;;;;;;34.65;20.38;;;;;;;7.64;65.26;98080.69;5042612;28;20497;-65
2021/03/28 06:18:00;;;;;;;34.20;18.38;;;;;;;7.77;64.01;98081.63;5043796;28;20094;-65
2021/03/28 06:20:56;;;;;;;32.28;18.73;;;;;;;7.86;64.62;98079.66;5043130;28;20141;-65
2021/03/28 06:23:56;;;;;;;30.77;17.55;;;;;;;8.17;64.64;98074.75;5043938;28;20485;-66
2021/03/28 06:27:14;;;;;;;28.27;17.00;;;;;;;8.04;65.00;98081.25;5043273;28;20043;-65
2021/03/28 06:30:35;;;;;;;29.35;18.25;;;;;;;8.25;64.89;98071.19;5042371;28;20506;-65
2021/03/28 06:33:35;;;;;;;38.67;20.65;;;;;;;8.67;62.79;98078.44;5043208;28;20142;-65
2021/03/28 06:36:56;;;;;;;23.45;16.10;;;;;;;8.87;59.79;98066.63;5043524;28;20055;-66
2021/03/28 06:39:53;;;;;;;25.35;16.52;;;;;;;9.26;58.78;98069.00;5043581;28;20687;-66
2021/03/28 06:43:06;;;;;;;25.52;15.82;;;;;;;9.67;56.43;98074.50;5042218;28;20526;-65
2021/03/28 06:46:05;;;;;;;32.70;16.20;;;;;;;9.91;56.29;98080.09;5043838;28;20148;-65
2021/03/28 06:49:14;;;;;;;22.95;14.85;;;;;;;10.13;54.22;98068.66;5046916;28;20071;-65
2021/03/28 06:51:58;;;;;;;22.40;14.30;;;;;;;9.99;54.35;98023.84;5045778;28;20148;-66
2021/03/28 06:55:27;;;;;;;21.65;14.75;;;;;;;9.93;54.45;97980.94;5046926;28;20040;-64
2021/03/28 06:59:07;;;;;;;20.00;12.30;;;;;;;10.47;52.98;98084.91;5035927;28;20106;-63
2021/03/28 07:02:06;;;;;;;18.23;11.18;;;;;;;10.81;51.75;98071.78;5046299;28;20043;-66
2021/03/28 07:05:21;;;;;;;15.68;10.00;;;;;;;11.03;50.36;98065.75;5046670;28;20052;-65
2021/03/28 07:08:40;;;;;;;;;;;;;;;11.14;52.36;98066.88;5047433;28;20122;-65
2021/03/28 07:11:31;;;;;;;19.80;13.30;;;;;;;11.43;52.33;98058.28;5004344;28;19932;-66
2021/03/28 07:14:43;;;;;;;20.10;12.90;;;;;;;11.45;53.03;98072.59;5046997;28;20075;-65
2021/03/28 07:17:47;;;;;;;24.08;12.98;;;;;;;11.78;51.85;98081.53;5046535;28;20451;-65
2021/03/28 07:20:51;;;;;;;20.50;12.43;;;;;;;11.93;50.87;98045.50;5046560;28;20044;-65
2021/03/28 07:24:16;;;;;;;20.53;12.30;;;;;;;12.36;49.97;98061.31;5046972;28;20055;-66
2021/03/28 07:27:55;;;;;;;37.28;20.25;;;;;;;12.64;49.81;98064.88;5046683;28;20371;-64
2021/03/28 07:30:56;;;;;;;18.50;11.20;;;;;;;12.77;49.12;98063.59;4984402;28;20049;-65
2021/03/28 07:33:59;;;;;;;20.52;10.85;;;;;;;12.47;48.68;98067.97;5046594;28;20048;-66
2021/03/28 07:37:21;;;;;;;15.77;10.25;;;;;;;12.84;48.37;98060.97;5044663;28;20090;-66
2021/03/28 07:40:21;;;;;;;14.32;10.35;;;;;;;13.08;47.43;98060.81;5045071;28;20043;-66
2021/03/28 07:43:57;;;;;;;15.63;9.88;;;;;;;12.25;47.10;97979.69;5045566;28;20082;-66
2021/03/28 07:47:29;;;;;;;13.90;9.65;;;;;;;12.83;47.70;98056.59;5042211;28;20087;-64
2021/03/28 07:50:47;;;;;;;14.13;8.43;;;;;;;13.29;47.83;98052.94;5045746;28;20055;-66
2021/03/28 07:53:41;;;;;;;14.77;8.18;;;;;;;13.74;45.51;98057.09;5046114;28;20044;-65
2021/03/28 07:56:25;;;;;;;13.55;9.18;;;;;;;13.96;44.25;98064.72;5043214;28;20047;-66
2021/03/28 07:59:57;;;;;;;12.20;9.10;;;;;;;11.89;43.19;97685.63;5046047;28;20051;-66
2021/03/28 08:03:19;;;;;;;13.88;8.43;;;;;;;14.45;42.49;98055.34;5043666;28;20169;-65
2021/03/28 08:06:24;;;;;;;11.65;9.07;;;;;;;14.88;41.15;98051.31;5044352;28;20048;-64
2021/03/28 08:09:28;;;;;;;14.63;9.07;;;;;;;15.20;39.74;98044.25;5044880;28;20082;-64
2021/03/28 08:12:47;;;;;;;15.15;9.57;;;;;;;15.35;39.24;98048.84;5045570;28;20121;-66
2021/03/28 08:15:59;;;;;;;12.13;9.30;;;;;;;15.58;38.83;98052.41;5038360;28;20146;-66
2021/03/28 08:19:08;;;;;;;12.57;9.10;;;;;;;15.83;38.28;98045.16;5044424;28;20044;-66
2021/03/28 08:22:36;;;;;;;10.02;8.82;;;;;;;15.76;38.11;98047.84;5043891;28;20106;-67
2021/03/28 08:25:51;;;;;;;13.43;8.57;;;;;;;15.79;38.49;97984.81;5045272;28;20068;-65
2021/03/28 08:28:41;;;;;;;11.80;8.65;;;;;;;15.81;38.04;98047.50;5045695;28;20102;-65
2021/03/28 08:31:48;;;;;;;13.35;8.10;;;;;;;16.10;36.52;98045.88;5043887;28;20136;-64
2021/03/28 08:34:49;;;;;;;15.38;8.25;;;;;;;16.47;36.38;98050.28;5045478;28;20530;-66
2021/03/28 08:37:45;;;;;;;10.55;8.15;;;;;;;16.66;38.34;98048.47;5049424;28;20048;-66
2021/03/28 08:40:54;;;;;;;13.48;9.15;;;;;;;16.85;37.53;98039.88;5063220;28;20047;-68
2021/03/28 08:43:49;;;;;;;11.60;8.77;;;;;;;16.63;37.12;97980.09;5064976;28;20043;-69
2021/03/28 08:46:51;;;;;;;11.52;8.90;;;;;;;17.26;34.80;98024.56;5063904;28;20047;-69
2021/03/28 08:49:35;;;;;;;13.70;10.35;;;;;;;17.48;34.74;98038.34;5064681;28;20070;-69
2021/03/28 08:52:29;;;;;;;11.27;8.77;;;;;;;17.63;34.58;98033.63;5063413;28;20063;-70
2021/03/28 08:55:24;;;;;;;11.63;8.60;;;;;;;17.77;34.57;98033.69;5062965;28;20476;-69
2021/03/28 08:58:34;;;;;;;12.18;8.93;;;;;;;17.83;34.70;98020.91;5064831;28;20277;-66
2021/03/28 09:01:25;;;;;;;11.07;8.57;;;;;;;17.95;34.25;98006.53;5064409;28;20518;-66
2021/03/28 09:04:23;;;;;;;10.05;8.10;;;;;;;17.77;34.18;97960.81;5065094;28;20035;-66
2021/03/28 09:07:28;;;;;;;12.43;9.15;;;;;;;15.66;34.62;97604.41;5064217;28;20500;-66
2021/03/28 09:10:31;;;;;;;12.40;9.77;;;;;;;18.50;34.86;98021.94;5060097;28;20052;-68
2021/03/28 09:13:53;;;;;;;12.38;8.07;;;;;;;18.72;32.72;98012.34;5064659;28;20102;-69
2021/03/28 09:17:01;;;;;;;10.65;8.20;;;;;;;18.69;31.25;98006.72;5060286;28;20051;-67
2021/03/28 09:19:55;;;;;;;8.70;7.53;;;;;;;18.38;32.61;98008.28;5064415;28;20572;-66
2021/03/28 09:23:00;;;;;;;9.82;8.48;;;;;;;18.71;31.69;97998.69;5065113;28;20414;-67
2021/03/28 09:25:55;;;;;;;11.35;8.15;;;;;;;18.79;31.05;98009.53;5063020;28;20120;-68
2021/03/28 09:28:57;;;;;;;11.70;8.35;;;;;;;18.88;30.91;98004.31;5063391;28;20415;-65
2021/03/28 09:32:11;;;;;;;10.18;7.68;;;;;;;18.82;30.34;97997.50;5063466;28;20430;-66
2021/03/28 09:35:17;;;;;;;9.02;7.50;;;;;;;18.73;30.08;97988.66;5052731;28;20055;-65
2021/03/28 09:38:32;;;;;;;8.63;7.28;;;;;;;18.89;29.67;98000.28;5057207;28;20484;-67
2021/03/28 09:41:35;;;;;;;8.20;7.43;;;;;;;10.16;29.63;96600.88;5042278;28;20086;-66
2021/03/28 09:44:59;;;;;;;11.07;8.13;;;;;;;19.15;30.22;97999.88;5042665;28;20059;-65
2021/03/28 09:47:58;;;;;;;10.82;8.38;;;;;;;19.17;30.50;97991.84;5044056;28;20051;-66
2021/03/28 09:51:14;;;;;;;9.88;8.02;;;;;;;19.18;29.34;97992.66;5043506;28;20063;-67
2021/03/28 09:54:01;;;;;;;11.68;7.75;;;;;;;19.39;28.84;97987.81;5043027;28;20072;-68
2021/03/28 09:57:06;;;;;;;11.60;7.80;;;;;;;19.47;29.07;97977.38;5044089;28;20462;-66
2021/03/28 10:00:18;;;;;;;10.52;7.40;;;;;;;19.65;29.06;97974.50;5042911;28;20043;-64
2021/03/28 10:03:14;;;;;;;16.92;8.65;;;;;;;19.88;29.44;97980.44;5043035;28;20556;-66
2021/03/28 10:06:03;;;;;;;15.43;8.05;;;;;;;19.91;30.40;97988.03;5043514;28;20471;-65
2021/03/28 10:09:38;;;;;;;13.98;7.55;;;;;;;19.77;29.78;97982.47;5044313;28;20048;-66
2021/03/28 10:12:28;;;;;;;;;;;;;;;19.68;30.19;97984.94;5009152;28;20143;-66
2021/03/28 10:15:25;;;;;;;13.52;7.20;;;;;;;19.52;29.38;97983.38;5042352;28;19928;-66
2021/03/28 10:18:28;;;;;;;10.18;7.65;;;;;;;19.57;29.56;97968.09;5044024;28;20048;-67
2021/03/28 10:21:40;;;;;;;15.50;11.23;;;;;;;19.87;29.51;97974.00;5040836;28;20039;-67
2021/03/28 10:24:41;;;;;;;9.25;7.22;;;;;;;20.20;28.91;97944.53;5043745;28;20110;-66
2021/03/28 10:27:33;;;;;;;7.93;7.22;;;;;;;20.16;29.48;97971.88;5043201;28;20061;-66
2021/03/28 10:30:23;;;;;;;8.32;7.20;;;;;;;19.83;30.10;97967.59;5043192;28;20188;-67
2021/03/28 10:33:32;;;;;;;10.35;7.07;;;;;;;19.70;30.42;97971.25;5043578;28;20772;-66
2021/03/28 10:36:35;;;;;;;8.95;7.20;;;;;;;19.91;30.15;97976.78;5043452;28;20435;-67
2021/03/28 10:40:02;;;;;;;8.73;6.97;;;;;;;19.23;30.38;97984.63;5060174;28;20056;-67
2021/03/28 10:42:50;;;;;;;11.52;7.95;;;;;;;19.10;31.15;97974.19;5063396;28;20094;-67
2021/03/28 10:45:39;;;;;;;11.63;6.60;;;;;;;19.48;31.10;97987.41;5061872;28;21134;-67
2021/03/28 10:48:42;;;;;;;10.77;8.13;;;;;;;19.69;31.12;97981.72;5063326;28;20131;-64
2021/03/28 10:52:03;;;;;;;10.15;7.88;;;;;;;19.73;30.31;97987.34;5063139;28;20121;-66
2021/03/28 10:54:58;;;;;;;10.60;8.48;;;;;;;18.81;30.96;97914.47;5061999;28;20052;-65
2021/03/28 10:58:04;;;;;;;13.23;8.38;;;;;;;19.05;31.69;97991.47;5062298;28;20302;-67
2021/03/28 11:01:26;;;;;;;10.20;8.10;;;;;;;18.67;30.84;97990.28;5061445;28;20051;-67
2021/03/28 11:04:33;;;;;;;13.07;7.20;;;;;;;19.05;31.21;97986.66;5062899;28;20107;-66
2021/03/28 11:07:38;;;;;;;12.10;8.65;;;;;;;19.23;31.84;97984.63;5062678;28;20051;-66
2021/03/28 11:10:51;;;;;;;14.15;8.93;;;;;;;19.08;31.00;97985.03;5063189;28;20051;-66
2021/03/28 11:13:48;;;;;;;10.80;8.60;;;;;;;18.44;30.87;97933.75;5063127;28;20443;-66
2021/03/28 11:17:09;;;;;;;10.32;8.35;;;;;;;18.97;31.51;97976.63;5062969;28;20079;-66
2021/03/28 11:20:23;;;;;;;15.77;8.57;;;;;;;19.41;33.21;97976.97;5063108;28;20262;-66
2021/03/28 11:24:07;;;;;;;11.45;8.13;;;;;;;19.36;31.44;97985.81;5063038;28;20101;-65
2021/03/28 11:27:03;;;;;;;9.23;8.15;;;;;;;19.25;31.64;97979.38;5005964;28;20491;-66
2021/03/28 11:30:02;;;;;;;9.90;8.05;;;;;;;19.26;32.06;97969.78;5063021;28;20064;-67
2021/03/28 11:32:49;;;;;;;10.90;8.40;;;;;;;19.32;32.55;97968.19;5066706;28;20127;-65
2021/03/28 11:35:55;;;;;;;12.57;8.93;;;;;;;19.47;31.51;97966.91;5064907;28;20055;-65
2021/03/28 11:39:17;;;;;;;10.73;8.50;;;;;;;19.89;32.01;97973.59;5059487;28;20436;-65
2021/03/28 11:42:15;;;;;;;10.70;8.20;;;;;;;20.27;31.65;97972.59;5045213;28;20162;-66
2021/03/28 11:44:59;;;;;;;9.70;8.70;;;;;;;20.32;31.41;97972.19;5045451;28;20067;-67
2021/03/28 11:47:53;;;;;;;14.77;8.85;;;;;;;20.13;30.85;97927.63;5046792;28;20117;-66
2021/03/28 11:50:40;;;;;;;8.75;7.93;;;;;;;20.34;30.18;97947.25;5044700;28;20059;-66
2021/03/28 11:53:24;;;;;;;10.20;8.32;;;;;;;20.53;29.82;97963.59;5046222;28;20039;-67
2021/03/28 11:56:35;;;;;;;10.65;8.23;;;;;;;20.55;31.61;97949.91;5044304;28;20079;-66
2021/03/28 11:59:19;;;;;;;11.57;9.23;;;;;;;20.73;31.87;97961.81;5044901;28;20052;-65
2021/03/28 12:02:10;;;;;;;12.63;9.40;;;;;;;20.83;31.15;97950.44;5045489;28;20461;-65
2021/03/28 12:04:57;;;;;;;11.55;9.32;;;;;;;21.25;30.74;97948.47;5045021;28;20086;-66
2021/03/28 12:07:46;;;;;;;9.88;8.73;;;;;;;21.04;31.25;97983.28;5046066;28;20490;-66
2021/03/28 12:10:35;;;;;;;10.30;9.20;;;;;;;20.64;30.66;97950.22;5045329;28;20124;-66
2021/03/28 12:13:35;;;;;;;10.13;7.97;;;;;;;20.30;30.19;97954.88;5045840;28;20102;-65
2021/03/28 12:16:19;;;;;;;10.00;8.23;;;;;;;20.39;30.27;97953.22;5043928;28;20101;-65
2021/03/28 12:19:16;;;;;;;;;;;;;;;20.49;30.95;97945.91;5044986;28;20114;-66
2021/03/28 12:22:07;;;;;;;11.23;8.80;;;;;;;20.63;30.42;97952.25;5044349;28;19981;-66
2021/03/28 12:25:17;;;;;;;10.32;8.50;;;;;;;20.45;30.27;97908.56;5045197;28;20106;-66
2021/03/28 12:28:27;;;;;;;13.43;9.30;;;;;;;20.66;30.48;97945.00;5045721;28;20625;-66
2021/03/28 12:31:33;;;;;;;9.98;8.98;;;;;;;20.90;29.23;97924.22;5043910;28;20055;-66
2021/03/28 12:34:31;;;;;;;10.15;8.60;;;;;;;20.67;29.95;97926.88;5045251;28;20043;-66
2021/03/28 12:37:26;;;;;;;11.68;8.82;;;;;;;20.84;29.27;97934.34;5043711;28;20503;-66
2021/03/28 12:40:30;;;;;;;;;;;;;;;20.80;28.96;97939.25;5045579;28;20180;-66
2021/03/28 12:43:34;;;;;;;11.20;9.83;;;;;;;20.84;29.74;97945.63;5044644;28;19975;-66
2021/03/28 12:46:27;;;;;;;11.85;9.25;;;;;;;20.73;29.72;97944.91;5043928;28;20036;-66
2021/03/28 12:49:11;;;;;;;11.25;8.65;;;;;;;20.93;29.64;97943.94;5043999;28;20203;-66
2021/03/28 12:52:15;;;;;;;10.88;9.43;;;;;;;20.91;30.50;97942.75;5044719;28;20044;-65
2021/03/28 12:55:28;;;;;;;12.40;11.10;;;;;;;20.88;30.84;97932.31;5045244;28;20051;-66
2021/03/28 12:58:20;;;;;;;12.00;9.68;;;;;;;20.88;29.99;97926.69;5030211;28;20167;-67
2021/03/28 13:01:21;;;;;;;11.35;10.15;;;;;;;20.60;29.86;97884.69;5045484;28;20055;-67
2021/03/28 13:04:15;;;;;;;10.52;9.48;;;;;;;20.58;32.68;97932.19;5045216;28;20106;-66
2021/03/28 13:06:59;;;;;;;10.90;9.85;;;;;;;20.06;34.87;97933.34;5043680;28;20203;-67
2021/03/28 13:09:48;;;;;;;10.52;9.43;;;;;;;19.64;35.60;97877.31;5044936;28;20047;-67
2021/03/28 13:12:32;;;;;;;13.88;9.55;;;;;;;19.48;36.27;97926.38;5043819;28;20443;-67
2021/03/28 13:15:24;;;;;;;13.57;10.63;;;;;;;19.12;37.17;97936.09;5044544;28;20102;-66
2021/03/28 13:18:27;;;;;;;13.30;10.95;;;;;;;19.20;37.26;97932.06;5045109;28;20043;-66
2021/03/28 13:21:27;;;;;;;13.90;11.25;;;;;;;19.22;38.02;97940.88;5042797;28;20594;-67
2021/03/28 13:24:15;;;;;;;13.23;10.82;;;;;;;19.46;37.71;97934.41;5044689;28;20079;-66
2021/03/28 13:27:11;;;;;;;11.60;10.43;;;;;;;18.69;37.70;97951.38;5044152;28;20071;-67
2021/03/28 13:30:00;;;;;;;12.55;11.05;;;;;;;18.66;38.35;97935.34;5043370;28;20051;-67
2021/03/28 13:32:47;;;;;;;12.57;11.23;;;;;;;18.05;37.83;97896.41;5044514;28;20048;-66
2021/03/28 13:35:37;;;;;;;13.10;11.80;;;;;;;18.28;37.74;97932.47;5043636;28;20117;-67
2021/03/28 13:38:24;;;;;;;16.27;12.80;;;;;;;18.69;36.48;97953.38;5043147;28;20044;-67
2021/03/28 13:41:31;;;;;;;13.18;11.85;;;;;;;18.81;36.43;97931.31;5043489;28;20059;-66
2021/03/28 13:44:16;;;;;;;12.85;10.98;;;;;;;19.03;35.25;97944.13;5044211;28;20040;-67
2021/03/28 13:47:05;;;;;;;13.05;10.65;;;;;;;16.69;35.51;97586.06;5042420;28;20102;-67
2021/03/28 13:49:52;;;;;;;12.63;10.32;;;;;;;18.96;35.51;97937.72;5045743;28;20521;-67
2021/03/28 13:52:42;;;;;;;15.73;10.75;;;;;;;16.17;37.28;97610.63;5044202;28;20095;-67
2021/03/28 13:55:32;;;;;;;12.75;10.93;;;;;;;18.10;37.88;97938.06;5043710;28;20067;-67
2021/03/28 13:58:29;;;;;;;19.50;12.48;;;;;;;18.34;37.99;97939.28;5043979;28;20102;-66
2021/03/28 14:01:27;;;;;;;12.63;11.43;;;;;;;18.84;36.08;97936.13;5043669;28;20486;-66
2021/03/28 14:04:23;;;;;;;11.05;9.93;;;;;;;19.30;34.11;97931.25;5057046;28;20052;-68
2021/03/28 14:07:49;;;;;;;10.73;9.73;;;;;;;20.76;31.19;97921.56;5043516;28;20071;-66
2021/03/28 14:10:33;;;;;;;13.98;10.75;;;;;;;20.44;33.53;97923.81;4967562;28;20125;-66
2021/03/28 14:13:18;;;;;;;11.77;10.57;;;;;;;19.44;35.17;97936.81;4982238;28;20045;-65